Time;durP1;ratioP1;P1;durP2;ratioP2;P2;SDS_P1;SDS_P2;PMS_P1;PMS_P2;Temp;Humidity;BMP_temperature;BMP_pressure;BME280_temperature;BME280_humidity;BME280_pressure;Samples;Min_cycle;Max_cycle;Signal;HPM_P1;HPM_P2
2022/05/24 00:01:27;;;;;;;7.13;4.90;;;13.20;99.90;;;;;;4990042;28;20046;-46
2022/05/24 00:03:53;;;;;;;11.95;5.25;;;13.10;99.90;;;;;;4988202;28;20410;-47
2022/05/24 00:06:18;;;;;;;9.82;5.15;;;13.40;99.90;;;;;;4989476;28;20116;-46
2022/05/24 00:08:45;;;;;;;7.65;5.10;;;13.10;99.90;;;;;;4989823;28;20046;-46
2022/05/24 00:11:11;;;;;;;13.02;5.85;;;13.00;99.90;;;;;;4989965;28;20038;-46
2022/05/24 00:13:36;;;;;;;10.48;5.35;;;12.90;99.90;;;;;;4989824;28;20129;-46
2022/05/24 00:16:03;;;;;;;9.82;5.90;;;12.80;99.90;;;;;;4988620;28;20086;-47
2022/05/24 00:18:30;;;;;;;12.43;6.43;;;12.70;99.90;;;;;;4989941;28;20042;-45
2022/05/24 00:20:59;;;;;;;10.68;7.43;;;12.60;99.90;;;;;;4989714;28;20487;-47
2022/05/24 00:23:27;;;;;;;13.77;7.70;;;12.50;99.90;;;;;;4989678;28;20042;-45
2022/05/24 00:25:54;;;;;;;13.43;9.13;;;12.50;99.90;;;;;;4991937;28;20049;-45
2022/05/24 00:28:23;;;;;;;14.27;9.63;;;12.50;99.90;;;;;;4993526;28;20051;-45
2022/05/24 00:30:50;;;;;;;13.98;8.55;;;12.70;99.90;;;;;;4993835;28;20409;-45
2022/05/24 00:33:16;;;;;;;11.90;8.77;;;12.70;99.90;;;;;;4993085;28;20038;-46
2022/05/24 00:35:43;;;;;;;12.68;9.00;;;12.70;99.90;;;;;;4993652;28;20050;-45
2022/05/24 00:38:12;;;;;;;14.90;8.40;;;12.70;99.90;;;;;;4992903;28;20050;-49
2022/05/24 00:40:46;;;;;;;15.45;9.48;;;12.80;99.90;;;;;;4993636;28;20109;-45
2022/05/24 00:43:32;;;;;;;17.38;9.75;;;12.80;99.90;;;;;;4993439;28;20491;-45
2022/05/24 00:46:06;;;;;;;14.25;9.10;;;13.00;99.90;;;;;;4993076;28;20050;-48
2022/05/24 00:48:37;;;;;;;19.25;11.25;;;12.70;99.90;;;;;;4993414;28;20046;-45
2022/05/24 00:51:05;;;;;;;13.63;9.02;;;12.90;99.90;;;;;;4991749;28;20054;-47
2022/05/24 00:53:40;;;;;;;12.52;9.07;;;12.90;99.90;;;;;;4993269;28;20054;-46
2022/05/24 00:56:18;;;;;;;11.95;8.85;;;12.90;99.90;;;;;;4993073;28;20042;-49
2022/05/24 00:58:59;;;;;;;15.88;9.27;;;12.90;99.90;;;;;;4993311;28;20060;-49
2022/05/24 01:01:47;;;;;;;13.90;8.77;;;12.80;99.90;;;;;;4993129;28;20453;-46
2022/05/24 01:04:16;;;;;;;10.38;7.35;;;12.70;99.90;;;;;;4992990;28;20185;-47
2022/05/24 01:06:42;;;;;;;14.38;8.40;;;12.60;99.90;;;;;;4993072;28;20038;-47
2022/05/24 01:09:13;;;;;;;11.85;7.57;;;12.50;99.90;;;;;;4992699;28;20505;-45
2022/05/24 01:11:44;;;;;;;13.20;8.65;;;12.50;99.90;;;;;;4992806;28;20045;-49
2022/05/24 01:14:15;;;;;;;14.00;7.93;;;12.20;99.90;;;;;;4992784;28;20046;-46
2022/05/24 01:16:41;;;;;;;14.02;8.45;;;12.50;99.90;;;;;;4992565;28;20380;-45
2022/05/24 01:19:17;;;;;;;12.05;7.93;;;12.00;99.90;;;;;;4992424;28;20046;-45
2022/05/24 01:21:43;;;;;;;15.75;8.50;;;12.00;99.90;;;;;;4992686;28;20046;-45
2022/05/24 01:24:33;;;;;;;13.57;8.57;;;12.10;99.90;;;;;;4992081;28;20046;-45
2022/05/24 01:26:59;;;;;;;15.85;7.43;;;12.10;99.90;;;;;;4992666;28;20057;-48
2022/05/24 01:29:26;;;;;;;12.57;7.97;;;12.90;99.90;;;;;;4991877;28;20121;-46
2022/05/24 01:37:24;;;;;;;13.43;7.60;;;12.00;99.90;;;;;;4991249;28;20109;-45
2022/05/24 01:39:56;;;;;;;16.88;7.65;;;12.00;99.90;;;;;;4992014;28;20592;-45
2022/05/24 01:42:22;;;;;;;12.18;7.40;;;12.10;99.90;;;;;;4992223;28;20397;-46
2022/05/24 01:45:03;;;;;;;12.93;7.40;;;12.10;99.90;;;;;;4992472;28;20073;-45
2022/05/24 01:47:31;;;;;;;11.23;6.78;;;12.00;99.90;;;;;;4992287;28;20141;-48
2022/05/24 01:50:01;;;;;;;14.45;6.85;;;12.00;99.90;;;;;;4991946;28;20513;-46
2022/05/24 01:52:29;;;;;;;12.23;6.07;;;12.00;99.90;;;;;;4991527;28;20069;-45
2022/05/24 01:55:01;;;;;;;13.82;6.38;;;11.90;99.90;;;;;;4991962;28;20046;-45
2022/05/24 01:57:31;;;;;;;9.80;6.15;;;11.80;99.90;;;;;;4991769;28;20112;-46
2022/05/24 01:59:58;;;;;;;12.85;6.63;;;11.70;99.90;;;;;;4991894;28;20132;-47
2022/05/24 02:02:26;;;;;;;13.85;7.00;;;12.40;99.90;;;;;;4991476;28;20488;-45
2022/05/24 02:04:52;;;;;;;13.50;7.65;;;11.80;99.90;;;;;;4991804;28;20042;-47
2022/05/24 02:07:21;;;;;;;17.80;8.73;;;11.40;99.90;;;;;;4991818;28;20046;-45
2022/05/24 02:09:50;;;;;;;13.80;8.77;;;11.30;99.90;;;;;;4991378;28;20042;-47
2022/05/24 02:12:18;;;;;;;15.73;9.82;;;11.20;99.90;;;;;;4991143;28;20046;-46
2022/05/24 02:14:50;;;;;;;22.10;11.52;;;11.10;99.90;;;;;;4991298;28;20087;-46
2022/05/24 02:17:20;;;;;;;;;;;11.20;99.90;;;;;;4991917;28;20038;-45
2022/05/24 02:19:52;;;;;;;27.77;13.48;;;11.20;99.90;;;;;;4991697;28;19921;-46
2022/05/24 02:22:22;;;;;;;;;;;11.50;99.90;;;;;;4992132;28;20057;-45
2022/05/24 02:25:13;;;;;;;24.83;13.85;;;11.40;99.90;;;;;;4990226;28;19940;-47
2022/05/24 02:27:44;;;;;;;25.27;15.63;;;11.80;99.90;;;;;;4991489;28;20065;-48
2022/05/24 02:30:12;;;;;;;24.73;15.75;;;11.40;99.90;;;;;;4991352;28;20394;-47
2022/05/24 02:32:37;;;;;;;30.42;17.95;;;11.70;99.90;;;;;;4991158;28;20399;-45
2022/05/24 02:35:04;;;;;;;32.22;17.38;;;12.00;99.90;;;;;;4991179;28;20043;-47
2022/05/24 02:37:29;;;;;;;34.67;19.23;;;11.80;99.90;;;;;;4990417;28;20078;-46
2022/05/24 02:42:39;;;;;;;29.38;19.50;;;11.70;99.90;;;;;;4990598;28;20133;-47
2022/05/24 02:45:05;;;;;;;34.45;21.45;;;11.60;99.90;;;;;;4990749;28;20133;-45
2022/05/24 02:47:31;;;;;;;33.35;21.20;;;11.70;99.90;;;;;;4990480;28;20081;-46
2022/05/24 02:49:57;;;;;;;34.13;20.15;;;11.60;99.90;;;;;;4991107;28;20077;-47
2022/05/24 02:52:22;;;;;;;34.28;20.88;;;11.70;99.90;;;;;;4989327;28;20544;-45
2022/05/24 02:54:48;;;;;;;37.05;21.02;;;11.90;99.90;;;;;;4991118;28;20406;-45
2022/05/24 02:57:14;;;;;;;28.13;20.83;;;12.00;99.90;;;;;;4990727;28;20046;-46
2022/05/24 02:59:39;;;;;;;33.88;22.40;;;11.90;99.90;;;;;;4990204;28;20042;-45
2022/05/24 03:02:05;;;;;;;34.08;20.77;;;12.00;99.90;;;;;;4990547;28;20073;-46
2022/05/24 03:04:31;;;;;;;49.05;23.83;;;12.00;99.90;;;;;;4990415;28;20046;-46
2022/05/24 03:09:41;;;;;;;45.45;25.08;;;12.10;99.90;;;;;;4989994;28;20061;-48
2022/05/24 03:14:56;;;;;;;46.45;26.35;;;12.20;99.90;;;;;;4990535;28;20461;-46
2022/05/24 03:17:22;;;;;;;49.40;27.23;;;12.30;99.90;;;;;;4990351;28;20038;-46
2022/05/24 03:19:49;;;;;;;50.08;28.70;;;12.30;99.90;;;;;;4990093;28;20050;-46
2022/05/24 03:22:15;;;;;;;45.92;29.25;;;12.30;99.90;;;;;;4990634;28;20057;-46
2022/05/24 03:24:41;;;;;;;50.88;31.02;;;12.40;99.90;;;;;;4989800;28;20478;-46
2022/05/24 03:27:13;;;;;;;58.45;33.95;;;12.40;99.90;;;;;;4990294;28;20050;-46
2022/05/24 03:29:43;;;;;;;59.42;32.53;;;12.40;99.90;;;;;;4989986;28;20054;-46
2022/05/24 03:32:11;;;;;;;56.47;32.17;;;12.50;99.90;;;;;;4990130;28;20050;-48
2022/05/24 03:34:37;;;;;;;68.25;36.25;;;12.50;99.90;;;;;;4989966;28;20042;-46
2022/05/24 03:37:03;;;;;;;87.32;36.10;;;12.40;99.90;;;;;;4989457;28;20081;-48
2022/05/24 03:39:29;;;;;;;51.90;34.28;;;12.60;99.90;;;;;;4989539;28;20057;-46
2022/05/24 03:41:55;;;;;;;58.03;34.67;;;12.60;99.90;;;;;;4989674;28;20046;-49
2022/05/24 03:44:20;;;;;;;56.63;35.10;;;12.70;99.90;;;;;;4990070;28;20048;-47
2022/05/24 03:46:46;;;;;;;56.65;34.33;;;12.70;99.90;;;;;;4988913;28;20121;-46
2022/05/24 03:49:14;;;;;;;59.72;36.13;;;12.70;99.90;;;;;;4989867;28;20437;-45
2022/05/24 03:51:40;;;;;;;50.67;32.35;;;12.90;99.90;;;;;;4989446;28;20154;-46
2022/05/24 03:54:06;;;;;;;52.90;34.40;;;12.80;99.90;;;;;;4989913;28;20077;-46
2022/05/24 03:56:33;;;;;;;52.00;34.90;;;13.10;99.90;;;;;;4989393;28;20038;-46
2022/05/24 03:58:59;;;;;;;60.90;36.40;;;13.10;99.90;;;;;;4989645;28;20459;-45
2022/05/24 04:01:25;;;;;;;47.28;33.65;;;12.90;99.90;;;;;;4989145;28;20097;-46
2022/05/24 04:03:51;;;;;;;47.30;33.35;;;12.90;99.90;;;;;;4989607;28;20657;-43
2022/05/24 04:06:16;;;;;;;50.25;34.13;;;13.00;99.90;;;;;;4981102;28;20678;-53
2022/05/24 04:08:43;;;;;;;46.80;32.35;;;13.30;99.90;;;;;;4982879;28;20053;-53
2022/05/24 04:11:10;;;;;;;49.22;32.70;;;14.30;99.90;;;;;;4987169;28;20088;-49
2022/05/24 04:13:38;;;;;;;49.70;32.75;;;13.40;99.90;;;;;;4987659;28;20034;-47
2022/05/24 04:16:04;;;;;;;46.25;32.50;;;13.10;99.90;;;;;;4987952;28;20121;-53
2022/05/24 04:18:30;;;;;;;42.85;31.60;;;13.10;99.90;;;;;;4987887;28;20050;-45
2022/05/24 04:20:56;;;;;;;42.88;31.15;;;13.20;99.90;;;;;;4988021;28;20093;-44
2022/05/24 04:23:25;;;;;;;42.20;30.20;;;13.20;99.90;;;;;;4988538;28;20042;-46
2022/05/24 04:25:51;;;;;;;41.25;29.33;;;13.50;99.90;;;;;;4987937;28;20046;-48
2022/05/24 04:28:18;;;;;;;39.22;29.08;;;13.30;99.90;;;;;;4987678;28;20355;-45
2022/05/24 04:30:46;;;;;;;37.15;30.00;;;13.40;99.90;;;;;;4988736;28;20041;-44
2022/05/24 04:33:12;;;;;;;34.92;27.90;;;13.40;99.90;;;;;;4988002;28;20046;-44
2022/05/24 04:35:38;;;;;;;34.20;26.90;;;13.40;99.90;;;;;;4989396;28;20045;-44
2022/05/24 04:38:04;;;;;;;36.35;26.98;;;13.40;99.90;;;;;;4989916;28;20042;-45
2022/05/24 04:43:13;;;;;;;37.45;25.20;;;13.50;99.90;;;;;;4989466;28;20046;-44
2022/05/24 04:45:39;;;;;;;35.63;25.35;;;13.40;99.90;;;;;;4988868;28;20042;-44
2022/05/24 04:48:06;;;;;;;34.50;25.17;;;13.70;99.90;;;;;;4989057;28;20125;-44
2022/05/24 04:50:33;;;;;;;35.00;25.60;;;13.50;99.90;;;;;;4989201;28;20078;-44
2022/05/24 04:52:58;;;;;;;29.88;24.05;;;13.60;99.90;;;;;;4988718;28;20070;-44
2022/05/24 04:55:26;;;;;;;36.45;25.70;;;13.70;99.90;;;;;;4989362;28;20104;-44
2022/05/24 04:57:53;;;;;;;30.75;22.05;;;13.80;99.90;;;;;;4989053;28;20113;-46
2022/05/24 05:00:20;;;;;;;34.65;23.30;;;13.90;99.90;;;;;;4989297;28;20185;-44
2022/05/24 05:02:46;;;;;;;28.70;23.00;;;13.90;99.90;;;;;;4988932;28;20030;-44
2022/05/24 05:05:13;;;;;;;32.72;23.52;;;13.90;99.90;;;;;;4989390;28;20443;-44
2022/05/24 05:07:39;;;;;;;36.10;22.65;;;14.00;99.90;;;;;;4989023;28;20557;-43
2022/05/24 05:10:06;;;;;;;27.70;22.90;;;14.00;99.90;;;;;;4989700;28;20055;-44
2022/05/24 05:12:31;;;;;;;31.42;22.40;;;14.00;99.90;;;;;;4991853;28;20401;-44
2022/05/24 05:14:57;;;;;;;31.67;23.38;;;15.70;99.90;;;;;;5008165;28;20038;-44
2022/05/24 05:17:23;;;;;;;32.42;23.15;;;14.30;99.90;;;;;;4992997;28;20501;-44
2022/05/24 05:19:49;;;;;;;27.80;22.48;;;14.00;99.90;;;;;;4992678;28;20042;-44
2022/05/24 05:22:16;;;;;;;30.92;23.27;;;14.00;99.90;;;;;;4992655;28;20050;-44
2022/05/24 05:24:42;;;;;;;39.13;25.73;;;13.90;99.90;;;;;;4991989;28;20134;-44
2022/05/24 05:27:08;;;;;;;30.63;24.80;;;14.30;99.90;;;;;;4992460;28;20177;-44
2022/05/24 05:32:26;;;;;;;32.70;26.13;;;14.20;99.90;;;;;;4992417;28;20045;-44
2022/05/24 05:34:53;;;;;;;35.72;25.95;;;14.20;99.90;;;;;;4992244;28;20046;-45
2022/05/24 05:37:19;;;;;;;36.83;26.02;;;14.90;99.90;;;;;;4991363;28;20070;-44
2022/05/24 05:39:45;;;;;;;36.33;26.67;;;14.30;99.90;;;;;;4990681;28;20059;-44
2022/05/24 05:42:11;;;;;;;34.67;26.58;;;14.40;99.90;;;;;;4992151;28;20413;-44
2022/05/24 05:44:38;;;;;;;33.60;26.27;;;14.50;99.90;;;;;;4992202;28;20042;-44
2022/05/24 05:47:04;;;;;;;33.78;25.67;;;14.50;99.90;;;;;;5007005;28;20095;-45
2022/05/24 05:49:30;;;;;;;29.17;25.50;;;14.40;99.90;;;;;;4991971;28;20065;-44
2022/05/24 05:51:56;;;;;;;35.03;25.13;;;14.40;99.90;;;;;;4991535;28;20062;-44
2022/05/24 05:54:23;;;;;;;31.13;23.30;;;14.40;99.90;;;;;;4991754;28;20050;-45
2022/05/24 05:56:49;;;;;;;31.33;21.85;;;14.40;99.90;;;;;;4991604;28;20061;-45
2022/05/24 05:59:15;;;;;;;34.20;22.75;;;14.40;99.90;;;;;;4992333;28;20751;-44
2022/05/24 06:01:42;;;;;;;27.88;22.02;;;14.60;99.90;;;;;;4991643;28;20074;-44
2022/05/24 06:04:08;;;;;;;34.00;23.83;;;14.80;99.90;;;;;;4992064;28;20042;-45
2022/05/24 06:06:39;;;;;;;32.38;22.35;;;14.90;99.90;;;;;;4991495;28;20109;-45
2022/05/24 06:09:05;;;;;;;29.45;21.33;;;15.10;99.90;;;;;;4991559;28;20046;-44
2022/05/24 06:11:30;;;;;;;24.00;18.63;;;15.30;99.90;;;;;;4991584;28;20060;-45
2022/05/24 06:13:56;;;;;;;27.05;17.08;;;15.30;99.90;;;;;;4991451;28;20470;-45
2022/05/24 06:16:22;;;;;;;24.80;16.92;;;15.30;99.90;;;;;;4991816;28;20130;-44
2022/05/24 06:18:48;;;;;;;19.95;15.80;;;15.60;99.90;;;;;;4990901;28;20046;-44
2022/05/24 06:21:14;;;;;;;22.23;16.13;;;15.90;99.90;;;;;;4991514;28;20042;-44
2022/05/24 06:23:39;;;;;;;22.92;16.45;;;16.20;99.90;;;;;;4990052;28;20057;-44
2022/05/24 06:26:05;;;;;;;24.83;14.98;;;16.50;99.90;;;;;;4991101;28;20053;-44
2022/05/24 06:28:31;;;;;;;21.77;14.68;;;16.80;99.90;;;;;;4989757;28;20409;-44
2022/05/24 06:30:57;;;;;;;21.48;15.75;;;16.80;99.90;;;;;;4991027;28;20045;-44
2022/05/24 06:33:23;;;;;;;28.88;16.23;;;16.70;99.90;;;;;;4991125;28;20111;-44
2022/05/24 06:35:49;;;;;;;19.67;14.75;;;16.60;99.90;;;;;;4990948;28;20080;-44
2022/05/24 06:38:16;;;;;;;19.65;12.93;;;16.50;99.90;;;;;;4991110;28;20514;-44
2022/05/24 06:40:41;;;;;;;19.67;13.63;;;16.60;99.90;;;;;;4989249;28;20056;-44
2022/05/24 06:43:07;;;;;;;19.50;14.25;;;16.50;99.90;;;;;;4990652;28;20050;-44
2022/05/24 06:45:34;;;;;;;16.48;13.23;;;16.40;99.90;;;;;;4991014;28;20046;-43
2022/05/24 06:47:59;;;;;;;21.25;14.27;;;16.20;99.90;;;;;;4990975;28;20042;-44
2022/05/24 06:50:25;;;;;;;23.00;15.02;;;16.00;99.90;;;;;;4991274;28;20065;-44
2022/05/24 06:52:53;;;;;;;24.50;13.88;;;15.80;99.90;;;;;;4990462;28;20113;-44
2022/05/24 06:55:20;;;;;;;25.35;15.10;;;15.80;99.90;;;;;;4990759;28;20266;-45
2022/05/24 06:57:46;;;;;;;23.75;14.68;;;15.70;99.90;;;;;;4990365;28;20377;-44
2022/05/24 07:03:06;;;;;;;22.23;14.93;;;15.60;99.90;;;;;;4990336;28;20112;-44
2022/05/24 07:05:32;;;;;;;18.25;14.07;;;15.50;99.90;;;;;;4988977;28;20430;-44
2022/05/24 07:08:00;;;;;;;22.50;13.35;;;15.70;99.90;;;;;;4990235;28;20092;-44
2022/05/24 07:10:28;;;;;;;17.77;12.95;;;15.70;99.90;;;;;;4990136;28;20454;-44
2022/05/24 07:13:07;;;;;;;18.95;12.60;;;15.70;99.90;;;;;;4990282;28;20121;-44
2022/05/24 07:15:33;;;;;;;21.63;13.50;;;15.70;99.90;;;;;;4990518;28;20073;-45
2022/05/24 07:18:00;;;;;;;20.27;12.77;;;16.00;99.90;;;;;;4990406;28;20100;-44
2022/05/24 07:20:26;;;;;;;20.88;13.43;;;15.70;99.90;;;;;;4989307;28;20066;-44
2022/05/24 07:22:54;;;;;;;16.85;12.80;;;15.70;99.90;;;;;;4989808;28;20118;-44
2022/05/24 07:25:21;;;;;;;24.88;12.75;;;15.70;99.90;;;;;;4990205;28;20486;-44
2022/05/24 07:27:47;;;;;;;20.08;11.95;;;15.70;99.90;;;;;;4989764;28;20113;-44
2022/05/24 07:30:13;;;;;;;18.27;12.55;;;15.80;99.90;;;;;;4990024;28;20042;-43
2022/05/24 07:32:39;;;;;;;18.08;12.38;;;15.90;99.90;;;;;;4990019;28;20140;-45
2022/05/24 07:35:06;;;;;;;20.05;12.35;;;15.90;99.90;;;;;;4989577;28;20053;-43
2022/05/24 07:37:32;;;;;;;21.42;12.90;;;16.00;99.90;;;;;;4989913;28;20046;-44
2022/05/24 07:48:11;;;;;;;13.55;9.98;;;15.70;99.90;;;;;;4990017;28;20065;-43
2022/05/24 07:50:37;;;;;;;17.05;10.85;;;15.70;99.90;;;;;;4988567;28;20049;-44
2022/05/24 07:53:03;;;;;;;19.00;10.40;;;15.70;99.90;;;;;;4989579;28;20096;-45
2022/05/24 07:55:29;;;;;;;14.77;11.07;;;15.80;99.90;;;;;;4990200;28;20078;-44
2022/05/24 07:57:55;;;;;;;20.85;10.98;;;15.90;99.90;;;;;;4990276;28;20081;-44
2022/05/24 08:00:21;;;;;;;16.13;10.23;;;15.90;99.90;;;;;;4988336;28;20059;-44
2022/05/24 08:02:51;;;;;;;22.17;10.60;;;16.00;99.90;;;;;;4989712;28;20050;-43
2022/05/24 08:05:18;;;;;;;17.88;11.02;;;16.20;99.90;;;;;;4988461;28;20101;-45
2022/05/24 08:07:49;;;;;;;17.58;10.98;;;16.60;99.90;;;;;;4989621;28;20093;-44
2022/05/24 08:10:15;;;;;;;18.50;10.52;;;16.50;99.90;;;;;;4989763;28;20042;-43
2022/05/24 08:12:41;;;;;;;16.77;11.02;;;16.50;99.90;;;;;;4989552;28;20109;-44
2022/05/24 08:15:08;;;;;;;16.20;10.15;;;16.50;99.90;;;;;;5004281;28;20043;-44
2022/05/24 08:17:34;;;;;;;19.85;11.32;;;16.50;99.90;;;;;;4989421;28;20035;-44
2022/05/24 08:20:00;;;;;;;16.98;9.65;;;16.50;99.90;;;;;;4989358;28;20453;-44
2022/05/24 08:22:26;;;;;;;18.50;10.77;;;16.60;99.90;;;;;;4989651;28;20049;-44
2022/05/24 08:24:52;;;;;;;16.40;11.02;;;16.70;99.90;;;;;;4989310;28;20130;-44
2022/05/24 08:27:18;;;;;;;17.52;10.32;;;16.90;99.90;;;;;;4989232;28;20042;-44
2022/05/24 08:29:47;;;;;;;16.63;10.18;;;17.20;99.90;;;;;;4989267;28;20088;-45
2022/05/24 08:32:13;;;;;;;13.15;8.77;;;18.40;99.90;;;;;;4989271;28;20125;-44
2022/05/24 08:34:39;;;;;;;11.13;8.70;;;18.50;99.90;;;;;;4989360;28;20117;-45
2022/05/24 08:37:06;;;;;;;12.25;8.27;;;19.50;99.90;;;;;;4987554;28;20081;-44
2022/05/24 08:39:32;;;;;;;17.27;9.55;;;19.90;99.90;;;;;;4989479;28;20088;-44
2022/05/24 08:42:07;;;;;;;11.80;7.72;;;20.30;99.90;;;;;;4989096;28;20050;-44
2022/05/24 08:50:17;;;;;;;13.05;7.75;;;20.20;98.80;;;;;;4992984;28;20066;-44
2022/05/24 08:52:57;;;;;;;11.40;7.53;;;20.10;98.40;;;;;;5007990;28;20065;-44
2022/05/24 08:55:23;;;;;;;11.45;7.90;;;20.20;97.40;;;;;;4993061;28;20475;-44
2022/05/24 08:57:52;;;;;;;9.45;6.32;;;20.80;98.40;;;;;;4992997;28;20034;-44
2022/05/24 09:00:26;;;;;;;10.15;6.50;;;21.90;99.90;;;;;;4993366;28;20124;-45
2022/05/24 09:02:52;;;;;;;8.52;5.57;;;21.90;99.90;;;;;;4993004;28;20038;-43
2022/05/24 09:05:25;;;;;;;9.20;5.57;;;23.40;93.30;;;;;;4992647;28;20050;-44
2022/05/24 09:08:16;;;;;;;11.60;5.38;;;25.00;91.30;;;;;;4992782;28;20038;-44
2022/05/24 09:10:49;;;;;;;11.35;4.30;;;26.50;85.90;;;;;;4992898;28;20054;-44
2022/05/24 09:13:32;;;;;;;6.90;2.80;;;27.80;80.30;;;;;;4992394;28;20173;-44
2022/05/24 09:16:12;;;;;;;7.90;3.20;;;27.80;75.50;;;;;;4992434;28;20046;-44
2022/05/24 09:19:14;;;;;;;6.20;3.13;;;26.90;74.00;;;;;;4992736;28;20054;-44
2022/05/24 09:21:42;;;;;;;5.90;3.30;;;26.20;71.90;;;;;;4992479;28;20052;-44
2022/05/24 09:24:20;;;;;;;6.88;3.35;;;25.50;74.40;;;;;;4992193;28;20042;-44
2022/05/24 09:27:04;;;;;;;6.45;2.40;;;25.30;72.50;;;;;;4992510;28;20046;-44
2022/05/24 09:29:33;;;;;;;7.07;2.70;;;26.40;74.40;;;;;;4992296;28;20057;-44
2022/05/24 09:32:07;;;;;;;4.95;1.92;;;27.40;73.30;;;;;;4992091;28;20042;-44
2022/05/24 09:34:34;;;;;;;6.80;2.08;;;27.10;68.70;;;;;;4992328;28;20042;-44
2022/05/24 09:37:03;;;;;;;3.75;1.63;;;26.10;67.30;;;;;;4991518;28;20044;-45
2022/05/24 09:39:38;;;;;;;5.03;1.67;;;25.10;67.70;;;;;;4991814;28;20122;-44
2022/05/24 09:42:10;;;;;;;4.03;1.33;;;25.60;70.30;;;;;;4991869;28;20046;-45
2022/05/24 09:44:50;;;;;;;10.20;1.80;;;26.30;69.00;;;;;;4992199;28;20050;-45
2022/05/24 09:47:47;;;;;;;4.78;1.92;;;27.00;67.60;;;;;;4991811;28;20052;-45
2022/05/24 09:50:20;;;;;;;3.95;1.85;;;27.30;66.50;;;;;;4983048;28;20062;-44
2022/05/24 09:53:12;;;;;;;4.32;1.63;;;26.70;64.00;;;;;;4991699;28;20423;-44
2022/05/24 09:55:59;;;;;;;4.53;1.65;;;25.40;63.50;;;;;;4992195;28;20038;-44
2022/05/24 09:58:50;;;;;;;5.65;2.00;;;24.30;66.00;;;;;;4991107;28;20081;-44
2022/05/24 10:01:43;;;;;;;4.93;1.73;;;23.80;68.10;;;;;;4991975;28;20042;-44
2022/05/24 10:04:23;;;;;;;9.00;1.83;;;22.00;82.20;;;;;;4991980;28;20046;-44
2022/05/24 10:06:56;;;;;;;3.80;1.52;;;21.70;70.80;;;;;;4991960;28;20568;-43
2022/05/24 10:09:47;;;;;;;2.60;0.85;;;21.10;75.50;;;;;;4991654;28;20375;-44
2022/05/24 10:12:26;;;;;;;4.47;1.20;;;20.50;72.70;;;;;;4991610;28;20047;-43
2022/05/24 10:15:21;;;;;;;5.07;1.83;;;20.10;74.70;;;;;;4991700;28;20069;-44
2022/05/24 10:18:23;;;;;;;4.75;1.85;;;20.30;76.40;;;;;;4991754;28;20074;-43
2022/05/24 10:21:00;;;;;;;4.50;1.85;;;20.60;77.00;;;;;;4991158;28;20572;-44
2022/05/24 10:23:45;;;;;;;4.07;2.00;;;21.10;76.60;;;;;;4991320;28;20035;-45
2022/05/24 10:26:26;;;;;;;8.50;2.30;;;22.20;93.20;;;;;;4990798;28;20046;-44
2022/05/24 10:29:12;;;;;;;4.55;1.80;;;23.80;76.10;;;;;;4991073;28;20121;-44
2022/05/24 10:31:56;;;;;;;2.75;1.70;;;25.10;70.10;;;;;;4990080;28;20482;-44
2022/05/24 10:41:02;;;;;;;5.10;1.60;;;24.40;67.80;;;;;;4990874;28;20501;-44
2022/05/24 10:43:31;;;;;;;3.80;1.63;;;24.00;66.40;;;;;;4985752;28;20050;-44
2022/05/24 10:46:03;;;;;;;6.35;0.73;;;24.00;66.80;;;;;;4990776;28;20078;-44
2022/05/24 10:48:38;;;;;;;5.53;0.60;;;24.00;65.60;;;;;;4990591;28;20054;-45
2022/05/24 10:51:21;;;;;;;3.50;0.60;;;23.90;65.60;;;;;;4990298;28;20053;-44
2022/05/24 10:54:01;;;;;;;3.05;0.70;;;23.90;67.50;;;;;;4990742;28;20051;-45
2022/05/24 10:56:57;;;;;;;2.28;0.08;;;23.60;65.50;;;;;;4990416;28;20047;-44
2022/05/24 10:59:44;;;;;;;5.35;0.17;;;22.50;63.90;;;;;;4990443;28;20046;-44
2022/05/24 11:02:29;;;;;;;1.75;0.10;;;20.70;66.40;;;;;;4990019;28;20494;-44
2022/05/24 11:05:12;;;;;;;3.95;0.45;;;19.20;70.60;;;;;;4989975;28;20581;-44
2022/05/24 11:07:38;;;;;;;1.67;0.17;;;18.10;77.10;;;;;;4990100;28;20494;-44
2022/05/24 11:10:36;;;;;;;1.85;0.08;;;16.30;94.80;;;;;;4989967;28;20046;-44
2022/05/24 11:13:38;;;;;;;5.18;0.10;;;15.80;93.20;;;;;;4985768;28;20129;-43
2022/05/24 11:16:11;;;;;;;2.15;0.70;;;14.90;97.10;;;;;;4982043;28;20046;-44
2022/05/24 11:18:40;;;;;;;2.00;0.20;;;14.40;97.10;;;;;;4990426;28;20046;-44
2022/05/24 11:21:11;;;;;;;1.45;0.10;;;14.10;99.70;;;;;;4990303;28;20054;-44
2022/05/24 11:23:45;;;;;;;4.80;0.30;;;14.00;99.90;;;;;;4990134;28;20137;-45
2022/05/24 11:26:21;;;;;;;1.45;0.35;;;14.00;99.90;;;;;;4990428;28;20100;-44
2022/05/24 11:28:58;;;;;;;5.82;0.35;;;13.90;99.90;;;;;;4990398;28;20121;-44
2022/05/24 11:31:36;;;;;;;3.15;0.32;;;13.80;99.90;;;;;;4989865;28;20046;-45
2022/05/24 11:34:18;;;;;;;2.20;0.40;;;13.70;99.90;;;;;;4990228;28;20125;-44
2022/05/24 11:37:00;;;;;;;1.23;0.65;;;13.70;99.90;;;;;;4990034;28;20052;-43
2022/05/24 11:39:33;;;;;;;3.30;1.25;;;13.70;99.90;;;;;;4988218;28;20046;-46
2022/05/24 11:42:40;;;;;;;3.45;1.20;;;14.00;99.90;;;;;;4988702;28;20495;-44
2022/05/24 11:45:44;;;;;;;2.63;1.40;;;14.30;99.90;;;;;;4990122;28;20046;-44
2022/05/24 11:48:13;;;;;;;2.25;1.00;;;14.90;99.90;;;;;;4967766;28;20518;-44
2022/05/24 11:50:45;;;;;;;5.28;1.90;;;15.20;99.90;;;;;;4952001;28;20045;-46
2022/05/24 11:53:11;;;;;;;2.50;1.15;;;15.40;99.90;;;;;;4979309;28;20082;-44
2022/05/24 11:56:01;;;;;;;4.68;2.03;;;15.20;99.90;;;;;;4990204;28;20072;-44
2022/05/24 11:58:30;;;;;;;5.32;1.10;;;15.10;99.90;;;;;;4986526;28;20085;-44
2022/05/24 12:01:09;;;;;;;1.83;1.00;;;15.10;99.90;;;;;;4989786;28;20598;-44
2022/05/24 12:09:59;;;;;;;4.10;0.90;;;15.10;99.90;;;;;;4989483;28;20580;-45
2022/05/24 12:12:46;;;;;;;2.45;0.75;;;15.20;99.90;;;;;;4989346;28;20087;-45
2022/05/24 12:15:11;;;;;;;2.55;0.63;;;15.80;99.90;;;;;;4989656;28;20076;-43
2022/05/24 12:17:38;;;;;;;3.45;0.68;;;16.20;99.90;;;;;;4988855;28;20073;-44
2022/05/24 12:20:24;;;;;;;1.58;0.50;;;16.60;99.90;;;;;;4989555;28;20560;-44
2022/05/24 12:23:16;;;;;;;2.83;0.50;;;17.00;99.90;;;;;;4993021;28;20100;-44
2022/05/24 12:26:01;;;;;;;2.58;0.60;;;17.30;99.90;;;;;;4990048;28;20078;-44
2022/05/24 12:28:28;;;;;;;2.17;1.00;;;17.50;99.90;;;;;;4993155;28;20172;-44
2022/05/24 12:30:58;;;;;;;3.08;0.32;;;17.40;99.90;;;;;;4991964;28;20049;-45
2022/05/24 12:33:35;;;;;;;1.40;0.50;;;17.40;99.90;;;;;;4993176;28;20117;-44
2022/05/24 12:36:28;;;;;;;8.20;0.63;;;17.60;99.90;;;;;;4993377;28;20116;-44
2022/05/24 12:39:07;;;;;;;6.90;0.75;;;17.80;99.90;;;;;;4988805;28;20132;-44
2022/05/24 12:41:41;;;;;;;2.95;0.40;;;17.90;99.90;;;;;;4992631;28;20647;-44
2022/05/24 12:44:23;;;;;;;2.67;0.40;;;17.70;99.90;;;;;;4992027;28;20085;-44
2022/05/24 12:47:02;;;;;;;2.13;0.30;;;17.50;99.90;;;;;;4993044;28;20081;-44
2022/05/24 12:49:34;;;;;;;2.33;0.50;;;17.40;99.90;;;;;;4993056;28;20065;-44
2022/05/24 12:52:27;;;;;;;2.22;0.30;;;17.30;99.90;;;;;;4992746;28;20061;-44
2022/05/24 12:55:05;;;;;;;1.98;0.30;;;17.00;99.90;;;;;;4991660;28;20379;-45
2022/05/24 12:57:39;;;;;;;2.08;0.40;;;16.50;99.90;;;;;;4992418;28;20046;-43
2022/05/24 13:00:12;;;;;;;1.98;0.40;;;16.00;99.90;;;;;;4992807;28;20322;-44
2022/05/24 13:02:49;;;;;;;2.55;0.40;;;15.80;99.90;;;;;;4992156;28;20541;-46
2022/05/24 13:05:25;;;;;;;3.50;0.57;;;15.70;99.90;;;;;;4992931;28;20054;-44
2022/05/24 13:07:50;;;;;;;0.88;0.20;;;15.60;99.90;;;;;;4992797;28;20044;-43
2022/05/24 13:10:22;;;;;;;1.55;0.20;;;15.40;99.90;;;;;;4992860;28;20401;-44
2022/05/24 13:13:00;;;;;;;1.30;0.30;;;15.30;99.90;;;;;;4992608;28;20046;-44
2022/05/24 13:15:53;;;;;;;0.43;0.15;;;15.20;99.90;;;;;;4992544;28;20050;-44
2022/05/24 13:18:43;;;;;;;2.38;0.10;;;15.40;99.90;;;;;;4992847;28;20333;-44
2022/05/24 13:21:21;;;;;;;0.70;0.10;;;15.60;99.90;;;;;;4992919;28;20042;-43
2022/05/24 13:23:46;;;;;;;0.85;0.10;;;15.60;99.90;;;;;;4991332;28;20508;-44
2022/05/24 13:26:15;;;;;;;1.75;0.20;;;15.40;99.90;;;;;;4992439;28;20038;-44
2022/05/24 13:28:55;;;;;;;2.90;0.20;;;15.50;99.90;;;;;;4991869;28;20122;-44
2022/05/24 13:34:34;;;;;;;2.57;0.43;;;15.90;99.90;;;;;;4991919;28;20046;-44
2022/05/24 13:37:11;;;;;;;1.48;0.20;;;16.10;99.90;;;;;;4991717;28;20038;-44
2022/05/24 13:39:39;;;;;;;3.78;0.95;;;16.40;99.90;;;;;;4992144;28;20084;-43
2022/05/24 13:42:09;;;;;;;3.55;0.60;;;16.60;99.90;;;;;;4991971;28;20054;-44
2022/05/24 13:45:16;;;;;;;3.95;0.30;;;16.90;99.90;;;;;;4991881;28;20545;-44
2022/05/24 13:47:54;;;;;;;2.15;0.40;;;17.10;99.90;;;;;;4985443;28;20054;-44
2022/05/24 13:50:25;;;;;;;2.30;0.50;;;17.30;99.90;;;;;;4992135;28;20053;-44